Tropical Cyclones
[Index]
Main Index Home Page Stock Weather Photos Extreme Storms Discussion Storm News and Storm Chasing Reports Tropical Cyclones / Hurricanes / Typhoons Weather Data and Links Wild Fires / Bushfires Weather Observation Techniques Weather Picture Catalogue Tornado Pictures and Reports Stock Video Footage and DVDs for sale
Season 1980-1981 Tropical Cyclone ALICE Track Map
Season 1980-1981 Summaries: [BoM-AU] [JTWC-AU] [JTWC-SIO] [JTWC-SPAC] [JTWC-SH]
<<- Previous TC | BoM 1980-1981 Season | Next TC ->>

click for intensity scale information  Lat/long Grid: Show Hide

 Date Labels: Show Hide

Bureau of Meteorology Tropical Cyclone Data

Name: ALICE
Number: 609 / 198081_01

03 Nov 1980 00:00 UTC to 10 Nov 1980 12:00 UTC

    date/time    lat    long    hPa   cat  kts
1980-11-03 00    4.9   102.0   1006                     
1980-11-03 06    5.3   101.5   1006                     
1980-11-03 12    5.5   101.2   1005                     
1980-11-03 18    5.7   100.9   1004                     
1980-11-04 00    5.9   100.7   1004                     
1980-11-04 06    6.1   100.5   1003                     
1980-11-04 12    6.2   100.3   1003                     
1980-11-04 18    6.4   100.1   1002                     
1980-11-05 00    6.5    99.9   1002                     
1980-11-05 06    6.8    99.6    998                     
1980-11-05 12    7.1    99.0    994    1                
1980-11-05 18    7.5    98.3    990    1                
1980-11-06 00    7.8    97.4    985    2                
1980-11-06 06    8.1    96.5    977    2                
1980-11-06 12    8.3    95.5    967    3                
1980-11-06 18    8.6    94.3    958    3                
1980-11-07 00    8.9    92.9    950    4                
1980-11-07 06    9.4    91.8    946    4                
1980-11-07 12    9.9    90.6    942    4                
1980-11-07 18   10.4    89.4    940    4                
1980-11-08 00   10.7    87.9    940    4                
1980-11-08 06   10.8    86.7    945    4                
1980-11-08 12   11.0    85.6    950    4                
1980-11-08 18   11.2    84.7    955    4                
1980-11-09 00   11.5    83.9    960    3                
1980-11-09 06   11.8    83.0    960    3                
1980-11-09 12   12.1    82.2    960    3                
1980-11-09 18   12.5    81.6    960    3                
1980-11-10 00   12.9    80.9    960    3                
1980-11-10 06   13.3    80.4    960    3                
1980-11-10 12   13.4    78.8    960    3                
Winds are 10-min average.

Tropical cyclone tracks developed by Michael Bath using data from the Bureau of Meteorology and Google Maps.


[Australian Severe Weather index] [Copyright Notice] [Email Contacts] [Search This Site] [Privacy Policy]
Document: tropical_cyclone_alice.htm Updated: 30 May 2013